createdAt,value
2023-11-23T00:01:18.987Z,0.30
2023-11-23T00:03:20.522Z,0.34
2023-11-23T00:05:22.028Z,0.30
2023-11-23T00:07:24.045Z,0.36
2023-11-23T00:16:06.715Z,0.45
2023-11-23T00:18:08.312Z,0.51
2023-11-23T00:20:10.787Z,0.32
2023-11-23T00:22:12.283Z,0.34
2023-11-23T00:24:13.657Z,0.36
2023-11-23T00:26:15.111Z,0.36
2023-11-23T00:28:16.476Z,0.39
2023-11-23T00:30:18.128Z,0.36
2023-11-23T00:32:20.455Z,0.36
2023-11-23T00:41:01.941Z,0.05
2023-11-23T00:43:04.157Z,0.15
2023-11-23T00:45:06.850Z,0.17
2023-11-23T00:47:08.508Z,0.15
2023-11-23T00:49:11.206Z,0.22
2023-11-23T00:51:14.572Z,0.26
2023-11-23T00:53:16.019Z,0.34
2023-11-23T00:55:17.078Z,0.28
2023-11-23T00:57:19.131Z,0.29
2023-11-23T01:05:29.846Z,0.49
2023-11-23T01:07:31.153Z,0.53
2023-11-23T01:09:32.387Z,0.45
2023-11-23T01:11:33.678Z,0.42
2023-11-23T01:13:35.022Z,0.41
2023-11-23T01:15:36.459Z,0.42
2023-11-23T01:17:37.796Z,0.54
2023-11-23T01:19:39.042Z,0.55
2023-11-23T01:21:40.929Z,0.52
2023-11-23T01:26:26.146Z,0.50
2023-11-23T01:28:27.182Z,0.53
2023-11-23T01:30:28.387Z,0.54
2023-11-23T01:32:30.151Z,0.62
2023-11-23T01:34:31.722Z,0.50
2023-11-23T01:36:33.204Z,0.52
2023-11-23T01:38:34.265Z,0.60
2023-11-23T01:40:35.434Z,0.46
2023-11-23T01:42:37.639Z,0.61
2023-11-23T01:48:07.761Z,0.46
2023-11-23T01:50:11.737Z,0.53
2023-11-23T01:52:15.098Z,0.51
2023-11-23T01:54:16.983Z,0.54
2023-11-23T01:56:19.200Z,0.46
2023-11-23T01:58:22.150Z,0.49
2023-11-23T02:00:25.324Z,0.45
2023-11-23T02:02:27.732Z,0.40
2023-11-23T02:04:29.955Z,0.41
2023-11-23T02:12:02.332Z,0.34
2023-11-23T02:14:06.962Z,0.22
2023-11-23T02:16:08.458Z,0.17
2023-11-23T02:18:10.865Z,0.14
2023-11-23T02:20:12.613Z,0.14
2023-11-23T02:22:14.252Z,0.08
2023-11-23T02:24:16.878Z,0.20
2023-11-23T02:26:18.349Z,0.07
2023-11-23T02:28:19.422Z,0.19
2023-11-23T02:33:12.763Z,0.07
2023-11-23T02:35:14.146Z,0.04
2023-11-23T02:37:15.588Z,0.06
2023-11-23T02:39:16.940Z,0.05
2023-11-23T02:41:18.305Z,0.09
2023-11-23T02:43:19.721Z,0.15
2023-11-23T02:45:21.461Z,0.20
2023-11-23T02:47:22.837Z,0.14
2023-11-23T02:49:25.100Z,0.04
2023-11-23T02:53:53.339Z,0.07
2023-11-23T02:55:54.935Z,0.12
2023-11-23T02:57:56.264Z,-0.03
2023-11-23T02:59:57.859Z,0.10
2023-11-23T03:01:59.289Z,0.05
2023-11-23T03:04:00.507Z,0.09
2023-11-23T03:06:02.031Z,0.16
2023-11-23T03:08:03.534Z,0.07
2023-11-23T03:10:07.262Z,0.11
2023-11-23T03:14:21.407Z,0.12
2023-11-23T03:16:22.927Z,0.10
2023-11-23T03:18:24.366Z,0.09
2023-11-23T03:20:25.876Z,0.11
2023-11-23T03:22:27.269Z,0.13
2023-11-23T03:24:28.689Z,0.17
2023-11-23T03:26:32.059Z,0.06
2023-11-23T03:28:33.053Z,0.09
2023-11-23T03:30:36.198Z,0.11
2023-11-23T03:35:18.126Z,-0.04
2023-11-23T03:37:19.420Z,0.00
2023-11-23T03:39:21.222Z,-0.09
2023-11-23T03:41:22.683Z,-0.10
2023-11-23T03:43:24.016Z,-0.02
2023-11-23T03:45:25.609Z,0.00
2023-11-23T03:47:26.769Z,-0.03
2023-11-23T03:49:27.867Z,0.05
2023-11-23T03:51:29.921Z,0.02
2023-11-23T03:53:31.485Z,0.07
2023-11-23T03:55:41.617Z,0.10
2023-11-23T03:59:56.740Z,0.05
2023-11-23T04:01:58.172Z,-0.02
2023-11-23T04:03:59.609Z,-0.02
2023-11-23T04:06:01.032Z,-0.03
2023-11-23T04:08:02.455Z,-0.03
2023-11-23T04:10:04.521Z,-0.07
2023-11-23T04:12:07.311Z,-0.06
2023-11-23T04:14:08.758Z,-0.01
2023-11-23T04:16:10.746Z,-0.04
2023-11-23T04:20:37.226Z,-0.07
2023-11-23T04:22:38.658Z,-0.04
2023-11-23T04:24:41.981Z,-0.03
2023-11-23T04:26:43.621Z,-0.06
2023-11-23T04:28:45.155Z,0.03
2023-11-23T04:30:46.474Z,-0.05
2023-11-23T04:32:47.958Z,0.04
2023-11-23T04:34:49.402Z,0.01
2023-11-23T04:36:51.614Z,-0.03
2023-11-23T04:43:06.688Z,0.03
2023-11-23T04:45:09.170Z,0.06
2023-11-23T04:47:10.491Z,0.00
2023-11-23T04:49:11.864Z,0.04
2023-11-23T04:51:13.171Z,0.07
2023-11-23T04:53:14.535Z,0.02
2023-11-23T04:55:15.988Z,0.02
2023-11-23T04:57:17.981Z,-0.03
2023-11-23T04:59:21.064Z,0.02
2023-11-23T05:03:47.372Z,0.07
2023-11-23T05:05:48.921Z,0.12
2023-11-23T05:07:50.045Z,-0.03
2023-11-23T05:09:51.510Z,-0.09
2023-11-23T05:11:53.000Z,-0.07
2023-11-23T05:13:54.308Z,-0.05
2023-11-23T05:15:55.632Z,-0.07
2023-11-23T05:17:57.071Z,-0.05
2023-11-23T05:19:59.057Z,-0.02
2023-11-23T05:25:28.648Z,-0.01
2023-11-23T05:27:29.810Z,-0.05
2023-11-23T05:29:31.163Z,-0.05
2023-11-23T05:31:32.863Z,-0.06
2023-11-23T05:33:34.907Z,-0.05
2023-11-23T05:35:36.220Z,-0.08
2023-11-23T05:37:37.626Z,-0.08
2023-11-23T05:39:43.230Z,-0.07
2023-11-23T05:41:46.675Z,-0.10
2023-11-23T05:47:24.533Z,-0.08
2023-11-23T05:49:25.939Z,-0.17
2023-11-23T05:51:28.526Z,-0.14
2023-11-23T05:53:29.839Z,-0.10
2023-11-23T05:55:31.138Z,-0.11
2023-11-23T05:57:33.402Z,-0.07
2023-11-23T05:59:34.997Z,-0.05
2023-11-23T06:01:36.262Z,-0.01
2023-11-23T06:03:38.470Z,0.01
2023-11-23T06:08:21.106Z,-0.02
2023-11-23T06:10:22.448Z,-0.01
2023-11-23T06:12:23.557Z,0.05
2023-11-23T06:14:25.045Z,0.09
2023-11-23T06:16:26.552Z,0.14
2023-11-23T06:18:28.728Z,0.04
2023-11-23T06:20:30.687Z,0.09
2023-11-23T06:22:32.465Z,0.14
2023-11-23T06:24:34.568Z,0.16
2023-11-23T06:32:07.259Z,0.11
2023-11-23T06:34:08.793Z,0.15
2023-11-23T06:36:10.603Z,0.12
2023-11-23T06:38:12.002Z,0.09
2023-11-23T06:40:13.512Z,0.17
2023-11-23T06:42:14.955Z,0.14
2023-11-23T06:44:17.399Z,0.13
2023-11-23T06:46:19.695Z,0.05
2023-11-23T06:48:22.309Z,0.00
2023-11-23T06:57:55.153Z,-0.01
2023-11-23T06:59:58.293Z,0.12
2023-11-23T07:01:59.773Z,0.06
2023-11-23T07:04:01.445Z,0.15
2023-11-23T07:06:03.053Z,0.13
2023-11-23T07:08:05.191Z,0.24
2023-11-23T07:10:07.595Z,0.19
2023-11-23T07:12:10.373Z,0.30
2023-11-23T07:14:12.334Z,0.31
2023-11-23T07:22:27.712Z,0.33
2023-11-23T07:24:29.054Z,0.41
2023-11-23T07:26:32.354Z,0.34
2023-11-23T07:28:33.750Z,0.39
2023-11-23T07:30:35.195Z,0.40
2023-11-23T07:32:36.988Z,0.55
2023-11-23T07:34:38.624Z,0.74
2023-11-23T07:36:40.388Z,0.60
2023-11-23T07:38:45.282Z,0.73
2023-11-23T07:43:19.500Z,0.97
2023-11-23T07:45:20.998Z,1.13
2023-11-23T07:47:22.476Z,1.30
2023-11-23T07:49:23.971Z,1.04
2023-11-23T07:51:25.469Z,1.23
2023-11-23T07:53:30.661Z,1.28
2023-11-23T07:55:32.421Z,1.21
2023-11-23T07:57:33.574Z,1.27
2023-11-23T07:59:36.937Z,1.33
2023-11-23T08:07:52.050Z,1.28
2023-11-23T08:09:53.394Z,1.63
2023-11-23T08:11:57.609Z,1.90
2023-11-23T08:13:59.129Z,2.47
2023-11-23T08:16:02.516Z,2.70
2023-11-23T08:18:07.985Z,2.35
2023-11-23T08:20:14.375Z,2.53
2023-11-23T08:22:18.941Z,2.33
2023-11-23T08:24:24.445Z,2.31
2023-11-23T08:32:39.049Z,2.37
2023-11-23T08:34:42.503Z,2.51
2023-11-23T08:36:45.225Z,2.42
2023-11-23T08:38:47.379Z,2.48
2023-11-23T08:40:48.719Z,2.62
2023-11-23T08:42:49.795Z,2.58
2023-11-23T08:44:51.667Z,2.52
2023-11-23T08:46:53.062Z,3.75
2023-11-23T08:48:55.323Z,3.31
2023-11-23T08:57:05.856Z,3.13
2023-11-23T08:59:07.261Z,3.13
2023-11-23T09:01:09.111Z,2.98
2023-11-23T09:03:12.451Z,3.11
2023-11-23T09:05:14.035Z,3.01
2023-11-23T09:07:15.536Z,2.83
2023-11-23T09:09:17.619Z,2.93
2023-11-23T09:11:20.461Z,2.99
2023-11-23T09:13:22.761Z,2.94
2023-11-23T09:18:28.111Z,3.17
2023-11-23T09:20:29.538Z,3.26
2023-11-23T09:22:34.109Z,3.33
2023-11-23T09:24:36.227Z,3.31
2023-11-23T09:26:37.745Z,3.32
2023-11-23T09:28:39.202Z,3.41
2023-11-23T09:30:40.817Z,3.45
2023-11-23T09:32:43.171Z,3.38
2023-11-23T09:34:45.194Z,3.42
2023-11-23T09:40:17.039Z,3.61
2023-11-23T09:42:18.888Z,3.61
2023-11-23T09:44:20.939Z,3.66
2023-11-23T09:46:23.620Z,3.74
2023-11-23T09:48:28.386Z,3.81
2023-11-23T09:50:34.023Z,3.77
2023-11-23T09:52:38.484Z,3.74
2023-11-23T09:54:39.854Z,3.97
2023-11-23T09:56:42.047Z,3.88
2023-11-23T10:02:58.140Z,3.95
2023-11-23T10:04:59.419Z,3.84
2023-11-23T10:07:04.080Z,3.98
2023-11-23T10:09:07.194Z,4.16
2023-11-23T10:11:08.610Z,4.19
2023-11-23T10:13:10.639Z,4.19
2023-11-23T10:15:12.513Z,4.25
2023-11-23T10:17:14.042Z,4.16
2023-11-23T10:19:20.681Z,4.23
2023-11-23T10:23:35.221Z,4.26
2023-11-23T10:25:36.502Z,4.35
2023-11-23T10:27:38.261Z,4.43
2023-11-23T10:29:39.376Z,4.34
2023-11-23T10:31:40.842Z,4.35
2023-11-23T10:33:42.912Z,4.56
2023-11-23T10:35:46.099Z,4.60
2023-11-23T10:37:52.829Z,4.36
2023-11-23T10:39:55.026Z,4.47
2023-11-23T10:44:11.157Z,4.59
2023-11-23T10:46:13.445Z,4.67
2023-11-23T10:48:17.318Z,4.76
2023-11-23T10:50:20.266Z,4.73
2023-11-23T10:52:23.247Z,4.79
2023-11-23T10:54:24.642Z,4.66
2023-11-23T10:56:32.519Z,4.61
2023-11-23T10:58:38.572Z,4.72
2023-11-23T11:00:42.391Z,4.72
2023-11-23T11:08:57.982Z,4.93
2023-11-23T11:10:59.379Z,4.96
2023-11-23T11:13:06.552Z,5.05
2023-11-23T11:15:08.862Z,5.02
2023-11-23T11:17:10.513Z,5.10
2023-11-23T11:19:13.961Z,4.98
2023-11-23T11:21:19.012Z,5.08
2023-11-23T11:23:20.138Z,5.14
2023-11-23T11:25:22.531Z,5.01
2023-11-23T11:29:38.661Z,5.15
2023-11-23T11:31:41.197Z,5.06
2023-11-23T11:33:42.372Z,5.22
2023-11-23T11:35:45.754Z,5.14
2023-11-23T11:37:47.525Z,5.32
2023-11-23T11:39:51.252Z,5.25
2023-11-23T11:41:59.720Z,5.33
2023-11-23T11:44:01.465Z,5.41
2023-11-23T11:46:05.421Z,5.52
2023-11-23T11:54:22.674Z,5.61
2023-11-23T11:56:24.120Z,5.59
2023-11-23T11:58:27.057Z,5.50
2023-11-23T12:00:29.453Z,5.60
2023-11-23T12:02:31.851Z,5.48
2023-11-23T12:04:35.658Z,5.59
2023-11-23T12:06:37.153Z,5.63
2023-11-23T12:08:38.482Z,5.58
2023-11-23T12:10:41.574Z,5.68
2023-11-23T12:18:08.617Z,5.83
2023-11-23T12:20:11.859Z,5.79
2023-11-23T12:22:13.418Z,5.91
2023-11-23T12:24:19.364Z,6.06
2023-11-23T12:26:20.868Z,6.00
2023-11-23T12:28:22.973Z,5.96
2023-11-23T12:30:26.304Z,6.03
2023-11-23T12:32:28.137Z,5.98
2023-11-23T12:34:31.586Z,6.15
2023-11-23T12:42:47.707Z,6.34
2023-11-23T12:44:50.866Z,6.54
2023-11-23T12:46:52.481Z,6.49
2023-11-23T12:48:54.124Z,6.44
2023-11-23T12:50:59.323Z,6.50
2023-11-23T12:53:00.703Z,6.22
2023-11-23T12:55:02.191Z,6.46
2023-11-23T12:57:04.219Z,6.51
2023-11-23T12:59:06.753Z,6.29
2023-11-23T13:03:58.395Z,6.41
2023-11-23T13:06:02.076Z,6.62
2023-11-23T13:08:04.366Z,6.53
2023-11-23T13:10:06.671Z,6.69
2023-11-23T13:12:09.475Z,6.70
2023-11-23T13:14:10.665Z,6.66
2023-11-23T13:16:12.159Z,6.74
2023-11-23T13:18:15.291Z,6.66
2023-11-23T13:20:17.721Z,6.63
2023-11-23T13:25:39.816Z,6.61
2023-11-23T13:27:42.561Z,6.61
2023-11-23T13:29:43.902Z,6.65
2023-11-23T13:31:45.341Z,6.55
2023-11-23T13:33:48.355Z,6.66
2023-11-23T13:35:49.887Z,6.62
2023-11-23T13:37:52.467Z,6.65
2023-11-23T13:39:54.643Z,6.87
2023-11-23T13:41:57.033Z,6.76
2023-11-23T13:49:27.936Z,6.90
2023-11-23T13:51:31.440Z,7.03
2023-11-23T13:53:33.573Z,7.08
2023-11-23T13:55:36.234Z,6.92
2023-11-23T13:57:37.995Z,6.87
2023-11-23T13:59:39.328Z,6.85
2023-11-23T14:01:41.489Z,6.79
2023-11-23T14:03:43.147Z,6.81
2023-11-23T14:05:45.251Z,6.84
2023-11-23T14:14:00.751Z,6.80
2023-11-23T14:16:02.192Z,6.83
2023-11-23T14:18:04.143Z,6.86
2023-11-23T14:20:07.203Z,6.86
2023-11-23T14:22:08.644Z,6.87
2023-11-23T14:24:09.793Z,6.85
2023-11-23T14:26:11.239Z,6.99
2023-11-23T14:28:15.300Z,6.93
2023-11-23T14:30:18.405Z,6.96
2023-11-23T14:34:32.796Z,6.93
2023-11-23T14:36:34.320Z,6.84
2023-11-23T14:38:35.662Z,6.89
2023-11-23T14:40:37.596Z,6.73
2023-11-23T14:42:43.960Z,6.71
2023-11-23T14:44:50.066Z,6.72
2023-11-23T14:46:51.544Z,6.61
2023-11-23T14:48:53.118Z,6.59
2023-11-23T14:50:55.704Z,6.49
2023-11-23T14:57:10.057Z,6.36
2023-11-23T14:59:11.400Z,6.32
2023-11-23T15:01:12.767Z,6.45
2023-11-23T15:03:17.272Z,6.33
2023-11-23T15:05:19.148Z,6.22
2023-11-23T15:07:21.012Z,6.26
2023-11-23T15:09:22.384Z,6.28
2023-11-23T15:11:23.904Z,6.25
2023-11-23T15:13:32.612Z,6.17
2023-11-23T15:21:53.637Z,6.17
2023-11-23T15:23:55.073Z,6.18
2023-11-23T15:25:56.801Z,6.11
2023-11-23T15:27:59.173Z,6.13
2023-11-23T15:30:00.359Z,6.15
2023-11-23T15:32:06.441Z,6.12
2023-11-23T15:34:09.855Z,6.14
2023-11-23T15:36:11.709Z,6.10
2023-11-23T15:38:13.841Z,5.98
2023-11-23T15:46:26.424Z,5.99
2023-11-23T15:48:27.804Z,5.99
2023-11-23T15:50:32.726Z,6.09
2023-11-23T15:52:35.204Z,6.03
2023-11-23T15:54:36.869Z,6.10
2023-11-23T15:56:37.967Z,5.94
2023-11-23T15:58:39.318Z,5.92
2023-11-23T16:00:42.176Z,6.04
2023-11-23T16:02:46.024Z,5.94
2023-11-23T16:09:03.095Z,5.88
2023-11-23T16:11:04.523Z,5.85
2023-11-23T16:13:05.861Z,5.85
2023-11-23T16:15:08.239Z,5.89
2023-11-23T16:17:09.659Z,5.85
2023-11-23T16:19:12.083Z,5.87
2023-11-23T16:21:14.317Z,5.86
2023-11-23T16:23:15.656Z,5.93
2023-11-23T16:25:18.434Z,5.92
2023-11-23T16:31:35.103Z,5.93
2023-11-23T16:33:36.473Z,5.96
2023-11-23T16:35:37.846Z,5.95
2023-11-23T16:37:40.473Z,5.97
2023-11-23T16:39:42.072Z,5.97
2023-11-23T16:41:43.985Z,6.04
2023-11-23T16:43:45.823Z,6.08
2023-11-23T16:45:47.361Z,5.97
2023-11-23T16:47:54.298Z,6.03
2023-11-23T16:54:06.294Z,6.03
2023-11-23T16:56:08.511Z,6.05
2023-11-23T16:58:10.141Z,6.05
2023-11-23T17:00:16.371Z,6.07
2023-11-23T17:02:17.881Z,6.09
2023-11-23T17:04:19.848Z,6.11
2023-11-23T17:06:21.668Z,6.13
2023-11-23T17:08:23.070Z,6.12
2023-11-23T17:10:26.691Z,6.17
2023-11-23T17:16:40.197Z,6.16
2023-11-23T17:18:41.720Z,6.12
2023-11-23T17:20:43.083Z,6.12
2023-11-23T17:22:45.526Z,6.13
2023-11-23T17:24:46.741Z,6.09
2023-11-23T17:26:48.091Z,6.06
2023-11-23T17:28:49.417Z,6.05
2023-11-23T17:30:51.115Z,6.10
2023-11-23T17:38:22.125Z,6.08
2023-11-23T17:40:23.830Z,6.11
2023-11-23T17:42:25.247Z,6.12
2023-11-23T17:44:26.950Z,6.15
2023-11-23T17:46:28.315Z,6.12
2023-11-23T17:48:29.630Z,6.11
2023-11-23T17:50:31.363Z,6.22
2023-11-23T17:52:33.118Z,6.15
2023-11-23T17:54:35.713Z,6.15
2023-11-23T18:02:51.466Z,6.23
2023-11-23T18:04:56.023Z,6.26
2023-11-23T18:06:57.439Z,6.23
2023-11-23T18:08:58.900Z,6.17
2023-11-23T18:11:00.507Z,6.23
2023-11-23T18:13:01.647Z,6.22
2023-11-23T18:15:03.799Z,6.28
2023-11-23T18:17:07.160Z,6.28
2023-11-23T18:19:09.153Z,6.27
2023-11-23T18:25:24.030Z,6.35
2023-11-23T18:27:25.869Z,6.29
2023-11-23T18:29:28.296Z,6.35
2023-11-23T18:31:32.830Z,6.28
2023-11-23T18:33:36.369Z,6.35
2023-11-23T18:35:38.146Z,6.32
2023-11-23T18:37:39.752Z,6.34
2023-11-23T18:39:41.682Z,6.38
2023-11-23T18:41:44.220Z,6.36
2023-11-23T18:47:58.321Z,6.39
2023-11-23T18:49:59.661Z,6.38
2023-11-23T18:52:03.078Z,6.42
2023-11-23T18:54:05.109Z,6.40
2023-11-23T18:56:08.293Z,6.37
2023-11-23T18:58:09.625Z,6.43
2023-11-23T19:00:12.746Z,6.51
2023-11-23T19:02:14.774Z,6.47
2023-11-23T19:04:16.681Z,6.49
2023-11-23T19:09:54.027Z,6.54
2023-11-23T19:11:56.930Z,6.51
2023-11-23T19:13:58.050Z,6.57
2023-11-23T19:15:59.642Z,6.51
2023-11-23T19:18:03.411Z,6.54
2023-11-23T19:20:09.999Z,6.51
2023-11-23T19:22:12.224Z,6.53
2023-11-23T19:24:15.554Z,6.49
2023-11-23T19:26:19.599Z,6.52
2023-11-23T19:31:36.131Z,6.45
2023-11-23T19:33:37.996Z,6.47
2023-11-23T19:35:39.892Z,6.44
2023-11-23T19:37:41.925Z,6.49
2023-11-23T19:39:44.234Z,6.46
2023-11-23T19:41:45.970Z,6.47
2023-11-23T19:43:48.258Z,6.46
2023-11-23T19:45:50.064Z,6.43
2023-11-23T19:47:53.020Z,6.48
2023-11-23T19:56:26.030Z,6.47
2023-11-23T19:58:27.823Z,6.43
2023-11-23T20:00:29.700Z,6.46
2023-11-23T20:02:31.231Z,6.44
2023-11-23T20:04:33.489Z,6.47
2023-11-23T20:06:35.055Z,6.54
2023-11-23T20:08:36.470Z,6.53
2023-11-23T20:10:37.518Z,6.52
2023-11-23T20:12:40.080Z,6.53
2023-11-23T20:18:55.015Z,6.53
2023-11-23T20:20:56.822Z,6.58
2023-11-23T20:22:58.113Z,6.59
2023-11-23T20:24:59.339Z,6.67
2023-11-23T20:27:00.689Z,6.56
2023-11-23T20:29:02.015Z,6.61
2023-11-23T20:31:04.619Z,6.66
2023-11-23T20:33:06.182Z,6.70
2023-11-23T20:35:10.062Z,6.66
2023-11-23T20:41:24.296Z,6.78
2023-11-23T20:43:28.014Z,6.80
2023-11-23T20:45:30.873Z,6.80
2023-11-23T20:47:32.324Z,6.83
2023-11-23T20:49:34.148Z,6.88
2023-11-23T20:51:35.824Z,6.84
2023-11-23T20:53:37.733Z,6.81
2023-11-23T20:55:40.784Z,6.86
2023-11-23T20:57:45.042Z,6.85
2023-11-23T21:04:00.889Z,6.93
2023-11-23T21:06:16.911Z,6.87
2023-11-23T21:08:19.483Z,6.86
2023-11-23T21:10:21.480Z,6.85
2023-11-23T21:12:27.446Z,6.84
2023-11-23T21:14:29.612Z,6.84
2023-11-23T21:16:32.394Z,6.81
2023-11-23T21:18:34.050Z,6.88
2023-11-23T21:22:48.815Z,6.85
2023-11-23T21:24:52.221Z,6.88
2023-11-23T21:26:53.747Z,6.89
2023-11-23T21:28:55.324Z,6.96
2023-11-23T21:30:56.734Z,6.93
2023-11-23T21:32:58.164Z,6.90
2023-11-23T21:34:59.708Z,6.98
2023-11-23T21:37:01.039Z,6.93
2023-11-23T21:39:03.851Z,6.88
2023-11-23T21:45:18.144Z,7.00
2023-11-23T21:47:19.608Z,7.01
2023-11-23T21:49:21.027Z,7.06
2023-11-23T21:51:26.981Z,7.10
2023-11-23T21:53:28.344Z,7.07
2023-11-23T21:55:30.106Z,7.08
2023-11-23T21:57:31.432Z,7.03
2023-11-23T21:59:33.903Z,7.06
2023-11-23T22:01:36.632Z,7.07
2023-11-23T22:07:50.795Z,6.99
2023-11-23T22:09:52.314Z,7.00
2023-11-23T22:11:54.682Z,6.93
2023-11-23T22:13:56.124Z,6.91
2023-11-23T22:15:57.721Z,6.96
2023-11-23T22:17:59.562Z,6.94
2023-11-23T22:20:01.476Z,6.92
2023-11-23T22:22:03.949Z,6.88
2023-11-23T22:24:07.388Z,6.87
2023-11-23T22:32:55.895Z,6.75
2023-11-23T22:34:58.170Z,6.75
2023-11-23T22:37:00.215Z,6.78
2023-11-23T22:39:02.524Z,6.79
2023-11-23T22:41:04.474Z,6.75
2023-11-23T22:43:06.279Z,6.73
2023-11-23T22:45:10.250Z,6.84
2023-11-23T22:47:11.557Z,6.87
2023-11-23T22:49:14.187Z,6.85
2023-11-23T22:55:28.478Z,6.93
2023-11-23T22:57:29.597Z,6.94
2023-11-23T22:59:30.908Z,6.96
2023-11-23T23:01:33.499Z,7.01
2023-11-23T23:03:34.866Z,7.04
2023-11-23T23:05:36.221Z,7.08
2023-11-23T23:07:38.765Z,7.06
2023-11-23T23:09:41.126Z,7.10
2023-11-23T23:11:43.175Z,7.14
2023-11-23T23:17:58.640Z,7.13
2023-11-23T23:20:00.357Z,7.13
2023-11-23T23:22:01.764Z,7.12
2023-11-23T23:24:04.110Z,7.10
2023-11-23T23:26:05.798Z,7.17
2023-11-23T23:28:15.212Z,7.09
2023-11-23T23:30:24.565Z,7.12
2023-11-23T23:32:25.909Z,7.08
2023-11-23T23:38:40.301Z,6.98
2023-11-23T23:40:41.767Z,6.99
2023-11-23T23:42:42.802Z,6.96
2023-11-23T23:44:45.157Z,6.90
2023-11-23T23:46:46.657Z,6.83
2023-11-23T23:48:48.057Z,6.78
2023-11-23T23:50:49.780Z,6.78
2023-11-23T23:52:51.112Z,6.75
2023-11-23T23:54:53.703Z,6.79
